• Join FlightAware (Why Join?)
  • Login
  • US Flag 
11:26PM EDT


 

Airport Tracker/Info


-or-


 

Live Flight TrackerFlight Track Log ✈ SWA864 ✈ 13-Jul-2013 ✈ KBUR - KOAK

Flight Track Log - Related Links

Times and Time Zones

All times are in EDT time to prevent confusion due to time zone crossing. See the SWA864 flight status page for this flight to view local times or setup timezone preferences in your user account.

Time Position Orientation Groundspeed Altitude Reporting Facility
EDT Latitude Longitude Course Direction KTS MPH feet Rate Location/Type
07:42PM 34.1356 -118.4172 231° Southwest 222 255 5,000  Level Los Angeles Center
07:43PM 34.1872 -118.4733 318° Northwest 264 304 7,300 2,700 Climbing Los Angeles Center
07:44PM 34.2572 -118.5161 333° Northwest 282 325 10,700 2,880 Climbing Los Angeles Center
07:45PM 34.3358 -118.5656 333° Northwest 314 361 13,300 2,640 Climbing Los Angeles Center
07:46PM 34.4242 -118.6197 333° Northwest 352 405 16,200 2,820 Climbing Los Angeles Center
07:47PM 34.5153 -118.6767 333° Northwest 370 426 19,200 3,000 Climbing Los Angeles Center
07:48PM 34.6281 -118.7494 332° Northwest 383 441 22,400 2,460 Climbing Los Angeles Center
07:49PM 34.7281 -118.8153 332° Northwest 408 470 24,300 2,100 Climbing Los Angeles Center
07:50PM 34.8300 -118.8858 330° Northwest 421 484 26,800 2,040 Climbing Los Angeles Center
07:51PM 34.9247 -118.9819 320° Northwest 422 486 28,600 1,560 Climbing Los Angeles Center
07:52PM 35.0217 -119.0756 322° Northwest 443 510 30,100 1,500 Climbing Los Angeles Center
07:53PM 35.1219 -119.1725 322° Northwest 459 528 31,800 1,860 Climbing Los Angeles Center
07:54PM 35.2225 -119.2694 322° Northwest 461 531 34,000 2,040 Climbing Los Angeles Center
07:55PM 35.3172 -119.3617 322° Northwest 441 507 36,000 960 Climbing Los Angeles Center
07:56PM 35.4308 -119.4756 321° Northwest 442 509 36,000  Level Los Angeles Center
07:57PM 35.5267 -119.5714 321° Northwest 446 513 36,000  Level Los Angeles Center
07:58PM 35.6211 -119.6656 321° Northwest 442 509 36,000  Level Los Angeles Center
07:59PM 35.7142 -119.7581 321° Northwest 448 516 36,000  Level Oakland Center
08:00PM 35.8111 -119.8544 321° Northwest 453 521 36,000  Level Oakland Center
08:01PM 35.9056 -119.9500 321° Northwest 447 514 36,000  Level Oakland Center
08:02PM 36.0011 -120.0461 321° Northwest 447 514 36,000 -120 Level Oakland Center
08:03PM 36.0967 -120.1458 320° Northwest 452 520 35,800 -720 Descending Oakland Center
08:04PM 36.2083 -120.2564 321° Northwest 435 501 34,600 -1,440 Descending Oakland Center
08:05PM 36.3008 -120.3506 321° Northwest 432 497 32,900 -1,980 Descending Oakland Center
08:06PM 36.3947 -120.4492 320° Northwest 441 507 30,600 -1,620 Descending Oakland Center
08:07PM 36.4872 -120.5411 321° Northwest 431 496 29,700 -840 Descending Oakland Center
08:09PM 36.5825 -120.6392 320° Northwest 444 511 28,900 -1,260 Descending Oakland Center
08:10PM 36.6761 -120.7389 320° Northwest 444 511 27,200 -1,980 Descending Oakland Center
08:11PM 36.7647 -120.8292 321° Northwest 421 484 24,900 -2,220 Descending Oakland Center
08:12PM 36.8444 -120.9225 317° Northwest 399 459 22,700 -2,220 Descending Oakland Center
08:13PM 36.9222 -121.0142 317° Northwest 388 447 20,500 -2,100 Descending Oakland Center
08:14PM 36.9972 -121.0992 318° Northwest 371 427 18,500 -2,100 Descending Oakland Center
08:15PM 37.0739 -121.1889 317° Northwest 355 409 16,300 -2,220 Descending Oakland Center
08:16PM 37.1517 -121.2806 317° Northwest 342 394 14,100 -2,040 Descending Oakland Center
08:17PM 37.2194 -121.3567 318° Northwest 331 381 12,200 -1,860 Descending Oakland Center
08:18PM 37.2839 -121.4328 317° Northwest 320 368 10,300 -1,260 Descending Oakland Center
08:19PM 37.3458 -121.5039 318° Northwest 303 349 9,700 -1,440 Descending Oakland Center
08:19PM 37.3833 -121.5500 316° Northwest 306 352 7,900 -2,040 Descending Northern Cal TRACON
08:20PM 37.4500 -121.6167 322° Northwest 294 338 6,400 -960 Descending Northern Cal TRACON
08:21PM 37.5167 -121.6833 322° Northwest 286 329 6,000 -240 Descending Northern Cal TRACON
08:22PM 37.5667 -121.7500 313° West 257 296 6,000  Level Northern Cal TRACON
08:23PM 37.6000 -121.8167 302° West 256 295 6,000 -240 Level Northern Cal TRACON
08:24PM 37.5667 -121.9000 243° Southwest 242 278 5,600 -540 Descending Northern Cal TRACON
08:25PM 37.5667 -121.9667 270° West 236 272 5,000 -1,020 Descending Northern Cal TRACON
08:26PM 37.5833 -122.0500 284° West 215 247 3,600 -1,380 Descending Northern Cal TRACON
08:27PM 37.6167 -122.1000 310° West 190 219 2,300 -1,140 Descending Northern Cal TRACON
08:28PM 37.6500 -122.1500 310° West 171 197 1,400 -840 Descending Northern Cal TRACON
08:29PM 37.6833 -122.1833 322° Northwest 126 145 700 -660 Descending Northern Cal TRACON
08:30PM 37.7000 -122.2167 302° West 118 136 100 -600 Descending Northern Cal TRACON
08:33PM 37.7167 -122.2167 270° West  Level FlightAware Approximate